Winter Haven, FL

12:03 AM EST on February 14, 2016 (GMT -0500)
Winter Haven's-Gilbert | | Change Station
CLOSE
Current Station
Airport
Location: Winter Haven,
Elevation: 144 ft
Nearby Weather Stations

Elev 144 ft 28.06 °N, 81.75 °W | Updated 10 minutes ago

Clear
Clear
49 °F
Feels Like 49 °F
N
6
Wind Variable Wind from North

Today
High -- | Low -- °F
--% Chance of Precip.
Yesterday
High -- | Low -- °F
Precip. -- in
Pressure 30.30 in
Visibility 10.0 miles
Clouds Clear
Dew Point 41 °F
Humidity 74%
Rainfall 0.00 in
Snow Depth Not available.
7:05 AM 6:16 PM
Waxing Crescent, 38% visible
METAR KGIF 140453Z AUTO 36005KT 10SM CLR 09/05 A3031 RMK AO2 SLP261 T00940050 402220094
Pressure 30.30 in
Visibility 10.0 miles
Clouds Clear
Dew Point 41 °F
Humidity 74%
Rainfall 0.00 in
Snow Depth Not available.
7:05 AM 6:16 PM
Waxing Crescent, 38% visible
METAR KGIF 140453Z AUTO 36005KT 10SM CLR 09/05 A3031 RMK AO2 SLP261 T00940050 402220094

10-Day Weather Forecast

Almanac

Astronomy

Feb. 14, 2016 Rise Set
Actual Time
Civil Twilight
Nautical Twilight
Astronomical Twilight
Moon
Length of Visible Light
Length of Day
Tomorrow will be .
, % of the Moon is Illuminated

Today's Extremes

State Highs State Lows

Community

WunderPhotos

Upload Photos

1,892,748 photos uploaded!

WunderBlog® & News

Nearby

Air Quality

  Air Quality AQ Index Pollutant
Not available.

Snow Depth

Station Depth Elevation

Earthquake Activity

City Distance Mag. Time & Date
Minimum magnitude displayed is 2.5.

Coastal Water Temperatures

Place Temperature

Stations

Nearby Weather Stations

Station Location Temp. Windchill Dew Point Humidity Wind Precip. Elev Updated Type
                   

Watches & Warnings

There are currently no watches in effect.